Time;durP1;ratioP1;P1;durP2;ratioP2;P2;SDS_P1;SDS_P2;PMS_P1;PMS_P2;Temp;Humidity;BMP_temperature;BMP_pressure;BME280_temperature;BME280_humidity;BME280_pressure;Samples;Min_cycle;Max_cycle;Signal;HPM_P1;HPM_P2
2023/01/07 00:02:09;;;;;;;2.00;1.60;;;;;;;;;;8247194;28;20093;-62
2023/01/07 00:06:11;;;;;;;1.85;1.70;;;;;;;;;;8247206;28;20146;-63
2023/01/07 00:10:11;;;;;;;1.65;1.55;;;;;;;;;;8245736;28;20026;-62
2023/01/07 00:14:12;;;;;;;2.20;2.00;;;;;;;;;;8247016;28;20026;-62
2023/01/07 00:18:12;;;;;;;2.40;2.20;;;;;;;;;;8248173;28;20077;-63
2023/01/07 00:22:12;;;;;;;1.98;1.88;;;;;;;;;;8248026;28;20030;-62
2023/01/07 00:26:15;;;;;;;1.50;1.40;;;;;;;;;;8250858;28;20648;-62
2023/01/07 00:30:15;;;;;;;1.65;1.42;;;;;;;;;;8246254;28;20363;-63
2023/01/07 00:34:16;;;;;;;1.73;1.60;;;;;;;;;;8249017;28;20104;-62
2023/01/07 00:38:18;;;;;;;1.70;1.60;;;;;;;;;;8247006;28;20028;-62
2023/01/07 00:46:44;;;;;;;2.05;1.30;;;;;;;;;;8218175;28;20104;-62
2023/01/07 00:50:46;;;;;;;4.90;3.08;;;;;;;;;;8245943;28;20033;-62
2023/01/07 00:54:46;;;;;;;8.27;3.90;;;;;;;;;;8249350;28;20686;-62
2023/01/07 00:58:47;;;;;;;3.65;2.58;;;;;;;;;;8244982;28;20029;-62
2023/01/07 01:02:47;;;;;;;2.72;2.03;;;;;;;;;;8246497;28;20161;-62
2023/01/07 01:06:48;;;;;;;5.13;2.75;;;;;;;;;;8241160;28;20034;-62
2023/01/07 01:10:48;;;;;;;9.73;4.23;;;;;;;;;;8244649;28;20034;-62
2023/01/07 01:14:48;;;;;;;9.43;4.20;;;;;;;;;;8243902;28;20300;-62
2023/01/07 01:18:48;;;;;;;11.90;4.68;;;;;;;;;;8244620;28;20273;-63
2023/01/07 01:22:48;;;;;;;6.40;2.85;;;;;;;;;;8247808;28;20060;-62
2023/01/07 01:26:49;;;;;;;2.72;1.63;;;;;;;;;;8244236;28;20213;-62
2023/01/07 01:30:55;;;;;;;2.58;1.65;;;;;;;;;;8245371;28;20034;-62
2023/01/07 01:34:55;;;;;;;2.55;1.98;;;;;;;;;;8244714;28;20037;-62
2023/01/07 01:38:56;;;;;;;1.30;1.20;;;;;;;;;;8241332;28;20691;-63
2023/01/07 01:42:56;;;;;;;1.30;1.20;;;;;;;;;;8244430;28;20809;-62
2023/01/07 01:46:57;;;;;;;2.00;1.40;;;;;;;;;;8242997;28;20556;-62
2023/01/07 01:50:57;;;;;;;1.48;1.05;;;;;;;;;;8246270;28;20033;-62
2023/01/07 01:54:59;;;;;;;1.10;1.00;;;;;;;;;;8245611;28;20025;-62
2023/01/07 01:59:03;;;;;;;1.13;1.08;;;;;;;;;;8243238;28;20316;-62
2023/01/07 02:03:05;;;;;;;3.10;1.20;;;;;;;;;;8246246;28;20145;-62
2023/01/07 02:07:10;;;;;;;1.40;1.02;;;;;;;;;;8244152;28;20029;-62
2023/01/07 02:11:10;;;;;;;1.40;1.30;;;;;;;;;;8244840;28;20080;-63
2023/01/07 02:15:17;;;;;;;2.38;1.10;;;;;;;;;;8247381;28;20026;-62
2023/01/07 02:19:36;;;;;;;1.98;1.30;;;;;;;;;;8245299;28;20033;-62
2023/01/07 02:23:50;;;;;;;2.50;1.20;;;;;;;;;;8246362;28;20029;-62
2023/01/07 02:27:56;;;;;;;1.55;1.20;;;;;;;;;;8247267;28;20045;-63
2023/01/07 02:31:59;;;;;;;2.10;1.20;;;;;;;;;;8241092;28;20482;-62
2023/01/07 02:40:47;;;;;;;3.80;1.23;;;;;;;;;;8167013;28;20570;-62
2023/01/07 02:44:52;;;;;;;2.20;1.40;;;;;;;;;;8216311;28;20699;-62
2023/01/07 02:48:52;;;;;;;1.27;1.13;;;;;;;;;;8244769;28;20168;-62
2023/01/07 02:52:53;;;;;;;2.45;1.20;;;;;;;;;;8246164;28;20064;-62
2023/01/07 02:57:05;;;;;;;1.43;1.20;;;;;;;;;;8245019;28;20895;-62
2023/01/07 03:01:05;;;;;;;1.10;1.00;;;;;;;;;;8248273;28;21883;-62
2023/01/07 03:05:09;;;;;;;1.50;1.10;;;;;;;;;;8244926;28;20017;-62
2023/01/07 03:09:18;;;;;;;1.00;0.93;;;;;;;;;;8245571;28;20092;-62
2023/01/07 03:13:36;;;;;;;1.80;0.90;;;;;;;;;;8247483;28;20088;-62
2023/01/07 03:17:41;;;;;;;1.77;1.05;;;;;;;;;;8245556;28;20049;-62
2023/01/07 03:21:41;;;;;;;2.67;1.27;;;;;;;;;;8247988;28;20089;-62
2023/01/07 03:25:43;;;;;;;3.08;1.35;;;;;;;;;;8251630;28;20030;-62
2023/01/07 03:29:44;;;;;;;3.00;2.55;;;;;;;;;;8251773;28;20109;-62
2023/01/07 03:33:53;;;;;;;2.45;2.03;;;;;;;;;;8254535;28;20061;-62
2023/01/07 03:37:54;;;;;;;3.92;2.00;;;;;;;;;;8252608;28;20018;-62
2023/01/07 03:46:13;;;;;;;2.50;1.52;;;;;;;;;;8253576;28;20722;-62
2023/01/07 03:50:14;;;;;;;2.33;1.30;;;;;;;;;;8249482;28;20018;-62
2023/01/07 03:54:14;;;;;;;1.88;1.38;;;;;;;;;;8252788;28;20434;-62
2023/01/07 03:58:14;;;;;;;2.28;1.65;;;;;;;;;;8252028;28;20025;-62
2023/01/07 04:02:15;;;;;;;2.35;1.40;;;;;;;;;;8251211;28;20129;-63
2023/01/07 04:06:15;;;;;;;3.67;1.70;;;;;;;;;;8251113;28;20092;-62
2023/01/07 04:10:15;;;;;;;2.33;1.55;;;;;;;;;;8251254;28;20095;-62
2023/01/07 04:14:15;;;;;;;1.67;1.58;;;;;;;;;;8252715;28;20026;-63
2023/01/07 04:18:15;;;;;;;3.97;1.52;;;;;;;;;;8252039;28;20042;-62
2023/01/07 04:22:16;;;;;;;4.47;1.67;;;;;;;;;;8250274;28;20482;-62
2023/01/07 04:26:16;;;;;;;2.08;1.50;;;;;;;;;;8252010;28;20686;-62
2023/01/07 04:30:16;;;;;;;3.47;1.50;;;;;;;;;;8251237;28;20033;-63
2023/01/07 04:34:16;;;;;;;2.30;1.63;;;;;;;;;;8235386;28;20030;-63
2023/01/07 04:38:16;;;;;;;1.60;1.50;;;;;;;;;;8248371;28;20360;-64
2023/01/07 04:42:17;;;;;;;2.70;1.50;;;;;;;;;;8249654;28;20133;-62
2023/01/07 04:46:17;;;;;;;1.75;1.50;;;;;;;;;;8251809;28;20072;-62
2023/01/07 04:50:17;;;;;;;1.10;0.90;;;;;;;;;;8250706;28;20106;-62
2023/01/07 04:54:17;;;;;;;1.40;1.10;;;;;;;;;;8249399;28;20290;-62
2023/01/07 04:58:18;;;;;;;1.58;1.00;;;;;;;;;;8249778;28;20064;-62
2023/01/07 05:02:18;;;;;;;1.08;1.05;;;;;;;;;;8249263;28;20177;-63
2023/01/07 05:06:18;;;;;;;2.45;1.00;;;;;;;;;;8250960;28;20030;-62
2023/01/07 05:10:19;;;;;;;1.40;0.85;;;;;;;;;;8250423;28;20029;-63
2023/01/07 05:14:19;;;;;;;1.15;1.05;;;;;;;;;;8249490;28;20037;-62
2023/01/07 05:18:19;;;;;;;2.25;1.00;;;;;;;;;;8248756;28;20042;-62
2023/01/07 05:22:19;;;;;;;2.72;0.90;;;;;;;;;;8250106;28;20049;-62
2023/01/07 05:26:20;;;;;;;0.85;0.85;;;;;;;;;;8248845;28;20553;-62
2023/01/07 05:30:20;;;;;;;0.80;0.80;;;;;;;;;;8250750;28;20018;-63
2023/01/07 05:34:20;;;;;;;1.23;0.70;;;;;;;;;;8247958;28;20026;-63
2023/01/07 05:38:21;;;;;;;1.38;0.80;;;;;;;;;;8250673;28;20022;-63
2023/01/07 05:42:21;;;;;;;1.23;1.08;;;;;;;;;;8249643;28;20033;-63
2023/01/07 05:46:21;;;;;;;1.13;0.90;;;;;;;;;;8250058;28;20049;-63
2023/01/07 05:50:21;;;;;;;0.82;0.73;;;;;;;;;;8247676;28;20026;-63
2023/01/07 05:54:21;;;;;;;0.82;0.80;;;;;;;;;;8249796;28;20018;-63
2023/01/07 05:58:22;;;;;;;0.70;0.70;;;;;;;;;;8244954;28;20152;-63
2023/01/07 06:02:22;;;;;;;1.27;0.70;;;;;;;;;;8248271;28;20033;-63
2023/01/07 06:06:22;;;;;;;0.87;0.73;;;;;;;;;;8248471;28;20021;-63
2023/01/07 06:10:22;;;;;;;1.75;0.60;;;;;;;;;;8244667;28;20368;-63
2023/01/07 06:14:22;;;;;;;2.25;0.70;;;;;;;;;;8249982;28;20034;-63
2023/01/07 06:18:23;;;;;;;2.67;0.90;;;;;;;;;;8246752;28;20040;-63
2023/01/07 06:22:23;;;;;;;1.50;0.80;;;;;;;;;;8245823;28;20033;-63
2023/01/07 06:26:23;;;;;;;1.00;0.90;;;;;;;;;;8228387;28;20456;-62
2023/01/07 06:30:23;;;;;;;1.13;0.80;;;;;;;;;;8247811;28;20112;-63
2023/01/07 06:34:24;;;;;;;0.93;0.80;;;;;;;;;;8246036;28;20080;-63
2023/01/07 06:38:24;;;;;;;0.80;0.80;;;;;;;;;;8248765;28;20092;-62
2023/01/07 06:42:24;;;;;;;1.27;0.82;;;;;;;;;;8247091;28;20100;-63
2023/01/07 06:46:24;;;;;;;0.52;0.52;;;;;;;;;;8250710;28;20492;-63
2023/01/07 06:50:24;;;;;;;0.88;0.80;;;;;;;;;;8247451;28;20845;-63
2023/01/07 06:54:25;;;;;;;0.93;0.70;;;;;;;;;;8247646;28;20026;-63
2023/01/07 06:58:25;;;;;;;0.90;0.80;;;;;;;;;;8251684;28;20276;-62
2023/01/07 07:02:26;;;;;;;1.02;1.00;;;;;;;;;;8254339;28;20048;-63
2023/01/07 07:06:26;;;;;;;0.80;0.80;;;;;;;;;;8253862;28;20026;-63
2023/01/07 07:10:27;;;;;;;1.15;0.70;;;;;;;;;;8252223;28;20037;-63
2023/01/07 07:14:27;;;;;;;1.17;0.93;;;;;;;;;;8249237;28;20038;-63
2023/01/07 07:18:27;;;;;;;1.40;1.30;;;;;;;;;;8249834;28;20038;-63
2023/01/07 07:22:28;;;;;;;10.55;5.05;;;;;;;;;;8252369;28;20029;-63
2023/01/07 07:26:28;;;;;;;8.90;5.38;;;;;;;;;;8250810;28;20077;-63
2023/01/07 07:30:28;;;;;;;12.45;8.38;;;;;;;;;;8251785;28;20034;-63
2023/01/07 07:34:29;;;;;;;5.90;4.78;;;;;;;;;;8252488;28;20030;-63
2023/01/07 07:38:29;;;;;;;5.60;4.07;;;;;;;;;;8249263;28;20030;-63
2023/01/07 07:42:29;;;;;;;4.70;3.90;;;;;;;;;;8252378;28;20350;-62
2023/01/07 07:46:30;;;;;;;4.85;1.30;;;;;;;;;;8252648;28;20038;-63
2023/01/07 07:50:34;;;;;;;0.90;0.90;;;;;;;;;;8251332;28;20029;-63
2023/01/07 07:54:34;;;;;;;1.15;0.90;;;;;;;;;;8254223;28;20080;-63
2023/01/07 07:58:35;;;;;;;0.95;0.85;;;;;;;;;;8252501;28;20089;-63
2023/01/07 08:02:35;;;;;;;0.80;0.80;;;;;;;;;;8248746;28;20037;-63
2023/01/07 08:06:35;;;;;;;0.90;0.90;;;;;;;;;;8252684;28;20030;-63
2023/01/07 08:10:35;;;;;;;1.00;0.83;;;;;;;;;;8248555;28;20385;-63
2023/01/07 08:14:36;;;;;;;0.80;0.80;;;;;;;;;;8251004;28;20025;-62
2023/01/07 08:18:36;;;;;;;0.80;0.80;;;;;;;;;;8252598;28;20038;-63
2023/01/07 08:22:36;;;;;;;0.82;0.80;;;;;;;;;;8250667;28;20038;-62
2023/01/07 08:26:36;;;;;;;0.77;0.77;;;;;;;;;;8251007;28;20141;-62
2023/01/07 08:30:37;;;;;;;0.80;0.80;;;;;;;;;;8248898;28;20041;-62
2023/01/07 08:34:37;;;;;;;0.70;0.70;;;;;;;;;;8249448;28;20025;-62
2023/01/07 08:38:37;;;;;;;0.70;0.70;;;;;;;;;;8250204;28;20034;-62
2023/01/07 08:42:38;;;;;;;0.77;0.70;;;;;;;;;;8251577;28;20133;-63
2023/01/07 08:46:40;;;;;;;0.88;0.70;;;;;;;;;;8248511;28;20049;-62
2023/01/07 08:50:40;;;;;;;0.70;0.70;;;;;;;;;;8249922;28;20054;-62
2023/01/07 08:54:40;;;;;;;0.93;0.93;;;;;;;;;;8248510;28;20022;-63
2023/01/07 08:58:40;;;;;;;1.10;1.00;;;;;;;;;;8248796;28;20018;-63
2023/01/07 09:02:41;;;;;;;1.30;1.10;;;;;;;;;;8251070;28;20273;-62
2023/01/07 09:06:41;;;;;;;1.48;1.38;;;;;;;;;;8250310;28;20154;-62
2023/01/07 09:10:41;;;;;;;2.08;1.10;;;;;;;;;;8247748;28;20025;-62
2023/01/07 09:14:41;;;;;;;1.10;1.00;;;;;;;;;;8249408;28;20030;-62
2023/01/07 09:18:41;;;;;;;1.20;1.10;;;;;;;;;;8249863;28;20317;-62
2023/01/07 09:22:42;;;;;;;3.15;2.85;;;;;;;;;;8249538;28;20026;-63
2023/01/07 09:26:42;;;;;;;2.42;2.10;;;;;;;;;;8250128;28;20109;-62
2023/01/07 09:30:43;;;;;;;1.50;1.40;;;;;;;;;;8247308;28;20033;-62
2023/01/07 09:34:43;;;;;;;1.87;1.20;;;;;;;;;;8249163;28;20029;-63
2023/01/07 09:38:43;;;;;;;0.95;0.95;;;;;;;;;;8242964;28;20369;-63
2023/01/07 09:42:51;;;;;;;1.27;1.20;;;;;;;;;;8242468;28;20045;-62
2023/01/07 09:46:52;;;;;;;2.40;2.20;;;;;;;;;;8248552;28;20800;-63
2023/01/07 09:51:04;;;;;;;2.08;1.42;;;;;;;;;;8247111;28;20025;-63
2023/01/07 09:55:17;;;;;;;1.45;1.35;;;;;;;;;;8246149;28;20022;-63
2023/01/07 09:59:17;;;;;;;1.90;1.35;;;;;;;;;;8250542;28;20022;-63
2023/01/07 10:03:24;;;;;;;1.38;1.20;;;;;;;;;;8248539;28;20103;-63
2023/01/07 10:07:30;;;;;;;0.90;0.90;;;;;;;;;;8246902;28;20038;-63
2023/01/07 10:11:48;;;;;;;1.13;1.02;;;;;;;;;;8247515;28;20037;-63
2023/01/07 10:15:57;;;;;;;1.60;1.35;;;;;;;;;;8248212;28;21268;-63
2023/01/07 10:20:03;;;;;;;1.25;1.15;;;;;;;;;;8250510;28;20856;-63
2023/01/07 10:24:22;;;;;;;2.55;2.03;;;;;;;;;;8248037;28;20088;-63
2023/01/07 10:28:40;;;;;;;4.00;1.73;;;;;;;;;;8247519;28;20100;-63
2023/01/07 10:32:40;;;;;;;3.13;1.95;;;;;;;;;;8248005;28;20038;-63
2023/01/07 10:37:07;;;;;;;2.63;1.55;;;;;;;;;;8248366;28;20527;-63
2023/01/07 10:41:13;;;;;;;2.75;1.75;;;;;;;;;;8243533;28;20336;-64
2023/01/07 10:45:17;;;;;;;2.55;1.10;;;;;;;;;;8247579;28;20160;-68
2023/01/07 10:49:37;;;;;;;1.20;1.10;;;;;;;;;;8248103;28;20533;-63
2023/01/07 10:53:56;;;;;;;4.40;2.60;;;;;;;;;;8247759;28;20285;-63
2023/01/07 10:57:56;;;;;;;1.48;1.00;;;;;;;;;;8248658;28;20250;-63
2023/01/07 11:01:57;;;;;;;0.93;0.93;;;;;;;;;;8247342;28;20081;-63
2023/01/07 11:06:01;;;;;;;0.82;0.82;;;;;;;;;;8248062;28;20052;-63
2023/01/07 11:10:04;;;;;;;1.10;1.00;;;;;;;;;;8246024;28;20025;-63
2023/01/07 11:14:25;;;;;;;1.50;1.38;;;;;;;;;;8249213;28;20010;-63
2023/01/07 11:18:29;;;;;;;1.67;1.05;;;;;;;;;;8247272;28;20070;-61
2023/01/07 11:22:31;;;;;;;4.63;2.35;;;;;;;;;;8249925;28;20026;-63
2023/01/07 11:26:31;;;;;;;2.05;1.45;;;;;;;;;;8246869;28;20033;-64
2023/01/07 11:30:32;;;;;;;1.10;1.00;;;;;;;;;;8246074;28;21470;-64
2023/01/07 11:34:34;;;;;;;1.15;1.13;;;;;;;;;;8248719;28;20520;-63
2023/01/07 11:38:36;;;;;;;0.98;0.80;;;;;;;;;;8245581;28;20038;-64
2023/01/07 11:42:45;;;;;;;1.05;0.95;;;;;;;;;;8246767;28;20452;-64
2023/01/07 11:46:45;;;;;;;2.03;1.00;;;;;;;;;;8253584;28;20070;-63
2023/01/07 11:50:52;;;;;;;1.33;1.23;;;;;;;;;;8251570;28;20029;-63
2023/01/07 11:54:52;;;;;;;1.65;1.13;;;;;;;;;;8254381;28;20144;-63
2023/01/07 11:59:13;;;;;;;1.50;1.20;;;;;;;;;;8253985;28;20061;-64
2023/01/07 12:03:13;;;;;;;1.30;1.20;;;;;;;;;;8250868;28;20037;-63
2023/01/07 12:07:15;;;;;;;2.43;1.37;;;;;;;;;;8252498;28;20133;-63
2023/01/07 12:11:15;;;;;;;1.30;1.20;;;;;;;;;;8245284;28;20280;-64
2023/01/07 12:15:45;;;;;;;1.40;1.30;;;;;;;;;;8250342;28;20053;-63
2023/01/07 12:19:55;;;;;;;2.67;1.90;;;;;;;;;;8243682;28;20038;-63
2023/01/07 12:24:00;;;;;;;12.05;7.03;;;;;;;;;;8252507;28;20021;-64
2023/01/07 12:28:04;;;;;;;17.55;8.63;;;;;;;;;;8253468;28;20018;-63
2023/01/07 12:32:11;;;;;;;28.13;14.90;;;;;;;;;;8254392;28;20041;-63
2023/01/07 12:36:20;;;;;;;5.07;3.50;;;;;;;;;;8252527;28;20026;-63
2023/01/07 12:40:41;;;;;;;2.80;1.88;;;;;;;;;;8252022;28;20029;-63
2023/01/07 12:44:46;;;;;;;1.60;1.50;;;;;;;;;;8251759;28;20098;-63
2023/01/07 12:48:55;;;;;;;2.08;1.60;;;;;;;;;;8248370;28;20148;-63
2023/01/07 12:53:04;;;;;;;2.03;1.50;;;;;;;;;;8252319;28;20022;-63
2023/01/07 12:57:10;;;;;;;5.53;1.95;;;;;;;;;;8243113;28;20025;-63
2023/01/07 13:01:15;;;;;;;2.35;1.80;;;;;;;;;;8246955;28;20037;-64
2023/01/07 13:05:26;;;;;;;1.83;1.67;;;;;;;;;;8248607;28;20037;-63
2023/01/07 13:09:32;;;;;;;1.55;1.45;;;;;;;;;;8246182;28;20038;-63
2023/01/07 13:13:36;;;;;;;1.70;1.50;;;;;;;;;;8245987;28;20018;-63
2023/01/07 13:17:37;;;;;;;1.98;1.77;;;;;;;;;;8246191;28;20034;-63
2023/01/07 13:21:37;;;;;;;1.70;1.60;;;;;;;;;;8243526;28;20113;-63
2023/01/07 13:25:56;;;;;;;1.90;1.80;;;;;;;;;;8246766;28;20135;-63
2023/01/07 13:30:04;;;;;;;1.88;1.63;;;;;;;;;;8245803;28;20025;-63
2023/01/07 13:34:19;;;;;;;1.40;1.30;;;;;;;;;;8246984;28;20979;-63
2023/01/07 13:38:19;;;;;;;1.73;1.52;;;;;;;;;;8247369;28;20033;-63
2023/01/07 13:42:32;;;;;;;3.58;1.83;;;;;;;;;;8244500;28;20025;-63
2023/01/07 13:46:35;;;;;;;1.95;1.77;;;;;;;;;;8247831;28;21010;-63
2023/01/07 13:50:42;;;;;;;1.65;1.50;;;;;;;;;;8243416;28;20157;-63
2023/01/07 13:54:51;;;;;;;2.40;1.77;;;;;;;;;;8246341;28;20132;-63
2023/01/07 13:58:54;;;;;;;1.77;1.67;;;;;;;;;;8246542;28;20193;-64
2023/01/07 14:02:55;;;;;;;2.03;1.83;;;;;;;;;;8247067;28;20042;-63
2023/01/07 14:06:58;;;;;;;2.30;2.10;;;;;;;;;;8245627;28;20344;-63
2023/01/07 14:10:58;;;;;;;2.47;2.20;;;;;;;;;;8244475;28;20034;-63
2023/01/07 14:15:10;;;;;;;2.03;1.83;;;;;;;;;;8246056;28;20107;-63
2023/01/07 14:19:15;;;;;;;2.20;2.00;;;;;;;;;;8245012;28;20042;-63
2023/01/07 14:23:15;;;;;;;3.38;3.08;;;;;;;;;;8248955;28;20026;-63
2023/01/07 14:27:24;;;;;;;5.72;2.42;;;;;;;;;;8243916;28;20067;-65
2023/01/07 14:31:28;;;;;;;6.45;4.72;;;;;;;;;;8243857;28;20971;-63
2023/01/07 14:35:31;;;;;;;4.50;2.78;;;;;;;;;;8243585;28;20679;-63
2023/01/07 14:39:40;;;;;;;13.03;8.43;;;;;;;;;;8244009;28;20034;-63
2023/01/07 14:43:40;;;;;;;25.05;19.77;;;;;;;;;;8243939;28;20140;-63
2023/01/07 14:47:43;;;;;;;16.35;11.35;;;;;;;;;;8242885;28;20491;-63
2023/01/07 14:51:56;;;;;;;15.48;9.35;;;;;;;;;;8243343;28;20504;-63
2023/01/07 14:56:05;;;;;;;8.88;6.45;;;;;;;;;;8244348;28;20025;-63
2023/01/07 15:00:24;;;;;;;4.85;3.63;;;;;;;;;;8241920;28;20116;-63
2023/01/07 15:04:56;;;;;;;2.53;2.10;;;;;;;;;;8245418;28;20505;-63
2023/01/07 15:17:37;;;;;;;2.17;2.00;;;;;;;;;;8242456;28;20799;-63
2023/01/07 15:22:01;;;;;;;1.83;1.67;;;;;;;;;;8248751;28;20034;-63
2023/01/07 15:26:07;;;;;;;2.20;2.00;;;;;;;;;;8249231;28;20694;-63
2023/01/07 15:30:19;;;;;;;2.45;1.80;;;;;;;;;;8249215;28;20745;-63
2023/01/07 15:34:29;;;;;;;2.13;2.00;;;;;;;;;;8247424;28;20018;-63
2023/01/07 15:38:30;;;;;;;2.00;1.90;;;;;;;;;;8249264;28;20026;-63
2023/01/07 15:42:31;;;;;;;4.35;2.10;;;;;;;;;;8248948;28;20026;-63
2023/01/07 15:46:32;;;;;;;3.20;2.30;;;;;;;;;;8248845;28;20037;-62
2023/01/07 15:50:33;;;;;;;2.22;1.98;;;;;;;;;;8248462;28;20107;-63
2023/01/07 15:54:35;;;;;;;3.28;1.90;;;;;;;;;;8251309;28;20069;-63
2023/01/07 15:58:38;;;;;;;2.28;2.08;;;;;;;;;;8250233;28;20080;-63
2023/01/07 16:02:40;;;;;;;2.70;2.40;;;;;;;;;;8250241;28;20117;-63
2023/01/07 16:06:44;;;;;;;3.40;3.08;;;;;;;;;;8248934;28;20983;-63
2023/01/07 16:10:45;;;;;;;;;;;;;;;;;;8249052;28;20497;-63
2023/01/07 16:14:45;;;;;;;4.82;3.83;;;;;;;;;;8249677;28;19920;-63
2023/01/07 16:18:52;;;;;;;5.93;3.65;;;;;;;;;;8251564;28;20042;-63
2023/01/07 16:23:00;;;;;;;4.05;3.05;;;;;;;;;;8251707;28;20085;-63
2023/01/07 16:27:02;;;;;;;3.08;2.70;;;;;;;;;;8248807;28;20065;-63
2023/01/07 16:31:04;;;;;;;2.33;2.13;;;;;;;;;;8247213;28;20034;-63
2023/01/07 16:35:08;;;;;;;4.13;3.08;;;;;;;;;;8249016;28;20037;-63
2023/01/07 16:39:18;;;;;;;4.20;3.10;;;;;;;;;;8249530;28;20769;-62
2023/01/07 16:43:37;;;;;;;6.20;3.22;;;;;;;;;;8247350;28;20018;-63
2023/01/07 16:47:37;;;;;;;4.10;3.10;;;;;;;;;;8248117;28;20041;-62
2023/01/07 16:51:49;;;;;;;4.30;3.17;;;;;;;;;;8230441;28;20136;-63
2023/01/07 16:55:49;;;;;;;4.32;3.22;;;;;;;;;;8247062;28;20033;-62
2023/01/07 16:59:54;;;;;;;4.68;3.47;;;;;;;;;;8246297;28;20767;-62
2023/01/07 17:03:56;;;;;;;4.35;3.03;;;;;;;;;;8248251;28;20034;-63
2023/01/07 17:07:58;;;;;;;3.78;3.08;;;;;;;;;;8245903;28;20033;-62
2023/01/07 17:11:58;;;;;;;7.15;3.90;;;;;;;;;;8247035;28;20022;-62
2023/01/07 17:16:18;;;;;;;9.02;4.93;;;;;;;;;;8248195;28;20152;-62
2023/01/07 17:20:21;;;;;;;14.15;8.45;;;;;;;;;;8245879;28;20105;-63
2023/01/07 17:24:21;;;;;;;7.82;4.22;;;;;;;;;;8248295;28;20550;-62
2023/01/07 17:28:22;;;;;;;4.30;3.63;;;;;;;;;;8243219;28;20061;-63
2023/01/07 17:32:23;;;;;;;6.68;5.38;;;;;;;;;;8245832;28;20176;-63
2023/01/07 17:36:24;;;;;;;6.25;4.70;;;;;;;;;;8246738;28;20061;-62
2023/01/07 17:40:24;;;;;;;6.13;4.55;;;;;;;;;;8240809;28;20022;-62
2023/01/07 17:44:24;;;;;;;5.87;4.93;;;;;;;;;;8246971;28;20088;-63
2023/01/07 17:48:25;;;;;;;8.98;5.57;;;;;;;;;;8246242;28;20293;-62
2023/01/07 17:52:25;;;;;;;9.80;6.07;;;;;;;;;;8246943;28;20034;-63
2023/01/07 17:56:25;;;;;;;6.53;4.38;;;;;;;;;;8244834;28;20034;-63
2023/01/07 18:00:26;;;;;;;5.65;4.28;;;;;;;;;;8246325;28;20034;-62
2023/01/07 18:04:26;;;;;;;4.30;3.65;;;;;;;;;;8244976;28;21087;-63
2023/01/07 18:08:26;;;;;;;5.40;3.55;;;;;;;;;;8246091;28;20033;-62
2023/01/07 18:12:30;;;;;;;6.40;4.53;;;;;;;;;;8244669;28;20014;-62
2023/01/07 18:16:30;;;;;;;5.28;4.70;;;;;;;;;;8242919;28;20089;-62
2023/01/07 18:20:30;;;;;;;7.57;5.97;;;;;;;;;;8241830;28;20029;-62
2023/01/07 18:24:30;;;;;;;8.03;5.77;;;;;;;;;;8245334;28;20037;-62
2023/01/07 18:28:30;;;;;;;9.70;7.30;;;;;;;;;;8243416;28;20280;-62
2023/01/07 18:32:31;;;;;;;10.30;7.68;;;;;;;;;;8246227;28;21165;-62
2023/01/07 18:36:31;;;;;;;10.57;7.63;;;;;;;;;;8245023;28;20137;-62
2023/01/07 18:40:32;;;;;;;5.95;5.13;;;;;;;;;;8245108;28;20839;-63
2023/01/07 18:44:32;;;;;;;8.50;6.07;;;;;;;;;;8246291;28;20022;-62
2023/01/07 18:48:33;;;;;;;16.98;9.63;;;;;;;;;;8225722;28;20030;-62
2023/01/07 18:52:35;;;;;;;18.85;11.85;;;;;;;;;;8249273;28;20442;-62
2023/01/07 18:56:36;;;;;;;13.13;9.10;;;;;;;;;;8250687;28;20029;-62
2023/01/07 19:00:36;;;;;;;7.85;6.32;;;;;;;;;;8250480;28;20136;-62
2023/01/07 19:04:38;;;;;;;7.50;5.45;;;;;;;;;;8251008;28;20038;-62
2023/01/07 19:08:39;;;;;;;5.72;4.95;;;;;;;;;;8249795;28;20029;-62
2023/01/07 19:12:39;;;;;;;12.05;6.93;;;;;;;;;;8250839;28;20022;-62
2023/01/07 19:16:39;;;;;;;9.77;6.73;;;;;;;;;;8252665;28;20066;-63
2023/01/07 19:20:39;;;;;;;6.47;5.13;;;;;;;;;;8248732;28;20295;-62
2023/01/07 19:24:40;;;;;;;6.83;5.40;;;;;;;;;;8251367;28;20034;-62
2023/01/07 19:28:40;;;;;;;8.40;5.20;;;;;;;;;;8250853;28;20281;-62
2023/01/07 19:32:40;;;;;;;6.77;5.50;;;;;;;;;;8250036;28;20038;-62
2023/01/07 19:36:45;;;;;;;18.85;9.93;;;;;;;;;;8251103;28;20368;-62
2023/01/07 19:40:45;;;;;;;16.00;8.07;;;;;;;;;;8250366;28;20018;-63
2023/01/07 19:44:45;;;;;;;15.48;9.10;;;;;;;;;;8247931;28;20033;-63
2023/01/07 19:48:46;;;;;;;10.95;6.82;;;;;;;;;;8248945;28;20033;-62
2023/01/07 19:52:46;;;;;;;27.48;13.90;;;;;;;;;;8250379;28;20029;-62
2023/01/07 19:56:46;;;;;;;25.77;12.95;;;;;;;;;;8249044;28;20026;-63
2023/01/07 20:00:46;;;;;;;15.45;7.88;;;;;;;;;;8249149;28;20045;-63
2023/01/07 20:04:46;;;;;;;22.50;11.17;;;;;;;;;;8248857;28;20034;-63
2023/01/07 20:08:47;;;;;;;11.80;6.18;;;;;;;;;;8248447;28;20038;-63
2023/01/07 20:12:47;;;;;;;15.45;7.40;;;;;;;;;;8249204;28;20025;-62
2023/01/07 20:16:47;;;;;;;19.25;7.55;;;;;;;;;;8248384;28;20422;-63
2023/01/07 20:20:54;;;;;;;24.20;11.10;;;;;;;;;;8250198;28;20944;-63
2023/01/07 20:24:55;;;;;;;22.48;9.95;;;;;;;;;;8248555;28;20034;-62
2023/01/07 20:28:56;;;;;;;7.05;4.55;;;;;;;;;;8248544;28;20834;-62
2023/01/07 20:32:56;;;;;;;5.18;3.10;;;;;;;;;;8248354;28;20033;-63
2023/01/07 20:36:56;;;;;;;13.47;5.60;;;;;;;;;;8248967;28;20046;-63
2023/01/07 20:40:56;;;;;;;8.52;3.72;;;;;;;;;;8245767;28;20327;-63
2023/01/07 20:44:57;;;;;;;5.65;3.70;;;;;;;;;;8246923;28;20026;-63
2023/01/07 20:48:58;;;;;;;3.25;2.40;;;;;;;;;;8247092;28;20034;-63
2023/01/07 20:52:58;;;;;;;5.07;2.50;;;;;;;;;;8246164;28;20033;-63
2023/01/07 20:56:58;;;;;;;5.20;2.53;;;;;;;;;;8246783;28;20132;-62
2023/01/07 21:01:03;;;;;;;2.50;2.17;;;;;;;;;;8246877;28;20989;-63
2023/01/07 21:05:03;;;;;;;3.72;2.55;;;;;;;;;;8247068;28;20025;-62
2023/01/07 21:09:03;;;;;;;2.35;2.00;;;;;;;;;;8248400;28;20702;-63
2023/01/07 21:13:04;;;;;;;3.72;2.30;;;;;;;;;;8245206;28;20104;-63
2023/01/07 21:17:04;;;;;;;4.20;1.92;;;;;;;;;;8245364;28;20470;-63
2023/01/07 21:21:09;;;;;;;2.67;2.10;;;;;;;;;;8248023;28;20096;-63
2023/01/07 21:25:12;;;;;;;2.40;2.15;;;;;;;;;;8246260;28;20037;-63
2023/01/07 21:29:14;;;;;;;3.05;2.30;;;;;;;;;;8246487;28;20021;-63
2023/01/07 21:33:15;;;;;;;4.07;2.40;;;;;;;;;;8247810;28;20137;-63
2023/01/07 21:37:15;;;;;;;3.85;2.40;;;;;;;;;;8246636;28;20033;-62
2023/01/07 21:41:16;;;;;;;3.58;2.15;;;;;;;;;;8246587;28;20040;-62
2023/01/07 21:45:16;;;;;;;2.42;2.13;;;;;;;;;;8245767;28;20041;-63
2023/01/07 21:49:17;;;;;;;4.38;2.60;;;;;;;;;;8245928;28;20758;-62
2023/01/07 21:53:18;;;;;;;5.13;2.40;;;;;;;;;;8246894;28;20033;-62
2023/01/07 21:57:18;;;;;;;3.53;2.70;;;;;;;;;;8245222;28;20022;-62
2023/01/07 22:01:18;;;;;;;4.10;2.42;;;;;;;;;;8244971;28;20482;-63
2023/01/07 22:05:18;;;;;;;2.60;2.05;;;;;;;;;;8247195;28;20080;-63
2023/01/07 22:09:19;;;;;;;2.38;2.17;;;;;;;;;;8247143;28;20033;-63
2023/01/07 22:13:19;;;;;;;3.40;2.40;;;;;;;;;;8246175;28;20096;-63
2023/01/07 22:17:19;;;;;;;2.35;2.03;;;;;;;;;;8247369;28;20228;-63
2023/01/07 22:21:20;;;;;;;3.40;2.00;;;;;;;;;;8245476;28;20708;-63
2023/01/07 22:25:20;;;;;;;3.03;2.40;;;;;;;;;;8245796;28;20947;-62
2023/01/07 22:29:20;;;;;;;5.75;2.25;;;;;;;;;;8244177;28;20133;-63
2023/01/07 22:33:21;;;;;;;3.45;2.58;;;;;;;;;;8245043;28;20044;-63
2023/01/07 22:37:25;;;;;;;2.67;2.33;;;;;;;;;;8247165;28;20109;-63
2023/01/07 22:41:26;;;;;;;2.15;1.92;;;;;;;;;;8243424;28;20030;-63
2023/01/07 22:45:38;;;;;;;2.80;2.50;;;;;;;;;;8243575;28;20057;-62
2023/01/07 22:49:39;;;;;;;3.40;2.13;;;;;;;;;;8240461;28;20032;-63
2023/01/07 22:53:39;;;;;;;3.78;2.15;;;;;;;;;;8244656;28;20137;-63
2023/01/07 22:57:40;;;;;;;2.50;1.95;;;;;;;;;;8243512;28;20092;-63
2023/01/07 23:01:40;;;;;;;2.35;1.98;;;;;;;;;;8245449;28;20030;-63
2023/01/07 23:05:41;;;;;;;2.65;2.20;;;;;;;;;;8246463;28;20858;-63
2023/01/07 23:09:41;;;;;;;2.88;2.28;;;;;;;;;;8245218;28;20048;-63
2023/01/07 23:13:41;;;;;;;2.15;1.95;;;;;;;;;;8245610;28;20144;-62
2023/01/07 23:17:41;;;;;;;2.80;2.17;;;;;;;;;;8246502;28;20447;-63
2023/01/07 23:21:42;;;;;;;2.90;2.17;;;;;;;;;;8245718;28;20113;-63
2023/01/07 23:25:46;;;;;;;2.47;2.22;;;;;;;;;;8245834;28;20041;-63
2023/01/07 23:29:46;;;;;;;2.20;2.00;;;;;;;;;;8244084;28;20030;-63
2023/01/07 23:33:46;;;;;;;3.10;2.40;;;;;;;;;;8245452;28;20042;-62
2023/01/07 23:37:46;;;;;;;3.67;2.45;;;;;;;;;;8244563;28;20217;-63
2023/01/07 23:41:47;;;;;;;3.90;2.22;;;;;;;;;;8248874;28;20028;-63
2023/01/07 23:45:48;;;;;;;2.80;2.03;;;;;;;;;;8234220;28;20034;-62
2023/01/07 23:49:48;;;;;;;3.08;2.28;;;;;;;;;;8254029;28;20025;-63
2023/01/07 23:53:48;;;;;;;3.60;2.00;;;;;;;;;;8253443;28;20021;-63
2023/01/07 23:57:48;;;;;;;2.80;2.28;;;;;;;;;;8251045;28;20033;-63
